createdAt,value
2023-10-22T00:00:24.695Z,81.82373
2023-10-22T00:01:33.384Z,82.000732
2023-10-22T00:02:43.201Z,82.733154
2023-10-22T00:03:50.877Z,81.781006
2023-10-22T00:05:00.445Z,81.719971
2023-10-22T00:06:10.156Z,81.518555
2023-10-22T00:07:18.819Z,81.921387
2023-10-22T00:08:26.653Z,81.68335
2023-10-22T00:09:36.377Z,81.640625
2023-10-22T00:10:45.096Z,81.134033
2023-10-22T00:11:54.789Z,80.969238
2023-10-22T00:13:03.433Z,80.969238
2023-10-22T00:14:13.115Z,81.072998
2023-10-22T00:15:22.835Z,81.036377
2023-10-22T00:16:30.551Z,80.932617
2023-10-22T00:17:38.241Z,80.828857
2023-10-22T00:18:48.106Z,80.627441
2023-10-22T00:19:56.597Z,81.036377
2023-10-22T00:21:05.303Z,81.134033
2023-10-22T00:22:13.985Z,80.731201
2023-10-22T00:23:23.710Z,80.932617
2023-10-22T00:24:33.377Z,81.134033
2023-10-22T00:25:41.084Z,81.036377
2023-10-22T00:26:48.842Z,80.792236
2023-10-22T00:27:58.412Z,80.487061
2023-10-22T00:29:08.122Z,80.792236
2023-10-22T00:30:16.860Z,80.69458
2023-10-22T00:31:25.508Z,80.792236
2023-10-22T00:32:35.324Z,80.895996
2023-10-22T00:33:44.967Z,80.792236
2023-10-22T00:34:52.513Z,80.187988
2023-10-22T00:36:00.333Z,79.919434
2023-10-22T00:37:09.837Z,80.285645
2023-10-22T00:38:18.501Z,80.084229
2023-10-22T00:39:27.203Z,80.487061
2023-10-22T00:40:36.894Z,80.187988
2023-10-22T00:41:46.622Z,80.389404
2023-10-22T00:42:56.483Z,80.389404
2023-10-22T00:44:06.125Z,80.187988
2023-10-22T00:45:13.818Z,79.980469
2023-10-22T00:46:24.493Z,80.285645
2023-10-22T00:47:34.180Z,80.084229
2023-10-22T00:48:43.894Z,80.426025
2023-10-22T00:49:52.561Z,80.731201
2023-10-22T00:51:02.309Z,81.439209
2023-10-22T00:52:11.988Z,81.237793
2023-10-22T00:53:20.635Z,81.378174
2023-10-22T00:54:28.286Z,81.47583
2023-10-22T00:55:38.000Z,81.378174
2023-10-22T00:56:47.827Z,81.176758
2023-10-22T00:57:57.519Z,81.072998
2023-10-22T00:59:06.210Z,81.176758
2023-10-22T01:00:14.907Z,80.969238
2023-10-22T01:01:24.566Z,80.871582
2023-10-22T01:02:33.381Z,81.072998
2023-10-22T01:03:42.020Z,81.176758
2023-10-22T01:04:51.721Z,81.311035
2023-10-22T01:06:00.372Z,81.311035
2023-10-22T01:07:09.022Z,81.072998
2023-10-22T01:08:17.686Z,81.005859
2023-10-22T01:09:26.473Z,81.213379
2023-10-22T01:10:36.079Z,80.908203
2023-10-22T01:11:44.803Z,81.414795
2023-10-22T01:12:52.552Z,81.414795
2023-10-22T01:14:02.250Z,81.414795
2023-10-22T01:15:10.962Z,81.860352
2023-10-22T01:16:19.662Z,81.921387
2023-10-22T01:17:28.310Z,81.616211
2023-10-22T01:18:38.009Z,81.616211
2023-10-22T01:19:47.647Z,81.518555
2023-10-22T01:20:56.323Z,81.719971
2023-10-22T01:22:04.999Z,81.719971
2023-10-22T01:23:14.705Z,81.213379
2023-10-22T01:24:23.370Z,81.311035
2023-10-22T01:25:33.067Z,81.311035
2023-10-22T01:26:41.772Z,81.616211
2023-10-22T01:27:50.464Z,81.518555
2023-10-22T01:29:00.222Z,81.616211
2023-10-22T01:30:08.885Z,81.414795
2023-10-22T01:31:16.640Z,81.213379
2023-10-22T01:32:27.310Z,80.969238
2023-10-22T01:33:35.134Z,80.871582
2023-10-22T01:34:43.640Z,80.871582
2023-10-22T01:35:53.389Z,80.908203
2023-10-22T01:37:02.035Z,81.109619
2023-10-22T01:38:11.777Z,81.005859
2023-10-22T01:39:19.488Z,81.109619
2023-10-22T01:40:28.130Z,80.908203
2023-10-22T01:41:36.860Z,81.14624
2023-10-22T01:42:45.488Z,81.109619
2023-10-22T01:43:55.237Z,81.414795
2023-10-22T01:45:04.840Z,81.414795
2023-10-22T01:46:13.530Z,82.098389
2023-10-22T01:47:23.842Z,82.507324
2023-10-22T01:48:32.992Z,82.165527
2023-10-22T01:49:41.593Z,81.958008
2023-10-22T01:50:51.290Z,81.719971
2023-10-22T01:51:59.955Z,81.414795
2023-10-22T01:53:09.594Z,81.518555
2023-10-22T01:54:18.280Z,81.518555
2023-10-22T01:55:26.994Z,81.518555
2023-10-22T01:56:36.695Z,81.719971
2023-10-22T01:57:45.400Z,81.921387
2023-10-22T01:58:55.071Z,81.719971
2023-10-22T02:00:02.785Z,81.82373
2023-10-22T02:01:11.464Z,81.921387
2023-10-22T02:02:21.141Z,82.025146
2023-10-22T02:03:30.858Z,81.719971
2023-10-22T02:04:41.456Z,82.122803
2023-10-22T02:05:50.161Z,82.263184
2023-10-22T02:06:59.837Z,82.330322
2023-10-22T02:08:09.525Z,81.958008
2023-10-22T02:09:18.225Z,82.470703
2023-10-22T02:10:25.887Z,82.8125
2023-10-22T02:11:35.558Z,82.672119
2023-10-22T02:12:44.242Z,82.122803
2023-10-22T02:13:53.932Z,81.719971
2023-10-22T02:15:03.632Z,81.958008
2023-10-22T02:16:12.282Z,81.555176
2023-10-22T02:17:22.053Z,82.470703
2023-10-22T02:18:30.677Z,82.366943
2023-10-22T02:19:38.312Z,81.958008
2023-10-22T02:20:48.009Z,82.061768
2023-10-22T02:21:56.650Z,81.860352
2023-10-22T02:23:05.337Z,81.616211
2023-10-22T02:24:14.069Z,81.518555
2023-10-22T02:25:22.790Z,81.555176
2023-10-22T02:26:32.414Z,81.616211
2023-10-22T02:27:40.096Z,81.311035
2023-10-22T02:28:47.758Z,81.14624
2023-10-22T02:29:57.466Z,81.555176
2023-10-22T02:31:07.132Z,81.25
2023-10-22T02:32:15.801Z,81.25
2023-10-22T02:33:25.605Z,80.804443
2023-10-22T02:34:35.284Z,80.908203
2023-10-22T02:35:44.933Z,80.706787
2023-10-22T02:36:54.571Z,81.005859
2023-10-22T02:38:03.302Z,81.005859
2023-10-22T02:39:13.095Z,80.804443
2023-10-22T02:40:21.688Z,80.706787
2023-10-22T02:41:30.446Z,80.603027
2023-10-22T02:42:39.130Z,80.908203
2023-10-22T02:43:48.807Z,81.005859
2023-10-22T02:44:58.519Z,81.518555
2023-10-22T02:46:06.239Z,81.414795
2023-10-22T02:47:15.885Z,81.616211
2023-10-22T02:48:25.630Z,81.518555
2023-10-22T02:49:34.244Z,81.518555
2023-10-22T02:50:42.936Z,81.616211
2023-10-22T02:51:51.630Z,81.616211
2023-10-22T02:53:00.292Z,81.213379
2023-10-22T02:54:10.031Z,81.451416
2023-10-22T02:55:17.669Z,81.658936
2023-10-22T02:56:26.354Z,82.263184
2023-10-22T02:57:36.044Z,82.122803
2023-10-22T02:58:44.856Z,81.719971
2023-10-22T02:59:54.582Z,81.414795
2023-10-22T03:01:03.237Z,81.616211
2023-10-22T03:02:12.873Z,81.518555
2023-10-22T03:03:22.657Z,81.274414
2023-10-22T03:04:31.297Z,81.414795
2023-10-22T03:05:38.921Z,81.176758
2023-10-22T03:06:48.600Z,81.072998
2023-10-22T03:07:58.288Z,80.871582
2023-10-22T03:09:06.982Z,81.072998
2023-10-22T03:10:16.619Z,80.767822
2023-10-22T03:11:26.293Z,80.871582
2023-10-22T03:12:35.970Z,81.213379
2023-10-22T03:13:44.687Z,81.109619
2023-10-22T03:14:52.324Z,81.109619
2023-10-22T03:16:02.049Z,80.908203
2023-10-22T03:17:10.698Z,80.664062
2023-10-22T03:18:20.443Z,80.36499
2023-10-22T03:19:29.048Z,80.36499
2023-10-22T03:20:37.785Z,80.157471
2023-10-22T03:21:47.416Z,80.944824
2023-10-22T03:22:56.112Z,81.005859
2023-10-22T03:24:02.841Z,80.908203
2023-10-22T03:25:12.485Z,80.603027
2023-10-22T03:26:21.150Z,80.706787
2023-10-22T03:27:29.826Z,80.36499
2023-10-22T03:28:38.537Z,80.603027
2023-10-22T03:29:47.252Z,80.401611
2023-10-22T03:30:55.884Z,80.36499
2023-10-22T03:32:04.578Z,80.194092
2023-10-22T03:33:13.377Z,79.956055
2023-10-22T03:34:23.017Z,79.553223
2023-10-22T03:35:31.699Z,79.754639
2023-10-22T03:36:40.400Z,79.992676
2023-10-22T03:37:48.104Z,79.852295
2023-10-22T03:38:56.861Z,79.345703
2023-10-22T03:40:06.571Z,79.449463
2023-10-22T03:41:16.212Z,79.553223
2023-10-22T03:42:24.882Z,79.107666
2023-10-22T03:43:34.619Z,78.90625
2023-10-22T03:44:43.288Z,78.942871
2023-10-22T03:45:53.026Z,79.345703
2023-10-22T03:47:01.665Z,79.107666
2023-10-22T03:48:10.422Z,79.003906
2023-10-22T03:49:20.104Z,78.399658
2023-10-22T03:50:27.706Z,78.295898
2023-10-22T03:51:36.390Z,78.094482
2023-10-22T03:52:46.069Z,79.486084
2023-10-22T03:53:54.790Z,79.040527
2023-10-22T03:55:04.441Z,78.942871
2023-10-22T03:56:14.090Z,79.144287
2023-10-22T03:57:22.815Z,78.942871
2023-10-22T03:58:32.505Z,78.942871
2023-10-22T03:59:42.450Z,78.601074
2023-10-22T04:00:52.129Z,78.637695
2023-10-22T04:02:00.889Z,78.741455
2023-10-22T04:03:09.604Z,78.839111
2023-10-22T04:04:19.226Z,78.497314
2023-10-22T04:05:27.870Z,78.533936
2023-10-22T04:06:37.564Z,78.436279
2023-10-22T04:07:47.238Z,78.436279
2023-10-22T04:08:55.965Z,78.570557
2023-10-22T04:10:05.592Z,78.436279
2023-10-22T04:11:14.279Z,78.4729
2023-10-22T04:12:24.009Z,78.4729
2023-10-22T04:13:33.669Z,79.217529
2023-10-22T04:14:43.611Z,78.979492
2023-10-22T04:15:53.177Z,78.674316
2023-10-22T04:17:01.686Z,78.265381
2023-10-22T04:18:11.407Z,78.369141
2023-10-22T04:19:21.053Z,78.778076
2023-10-22T04:20:28.747Z,78.979492
2023-10-22T04:21:37.430Z,79.052734
2023-10-22T04:22:47.144Z,79.321289
2023-10-22T04:23:55.868Z,79.321289
2023-10-22T04:25:05.549Z,78.778076
2023-10-22T04:26:14.283Z,78.4729
2023-10-22T04:27:22.956Z,78.33252
2023-10-22T04:28:32.658Z,77.825928
2023-10-22T04:29:42.340Z,77.929688
2023-10-22T04:30:52.039Z,77.319336
2023-10-22T04:32:01.695Z,77.557373
2023-10-22T04:33:10.473Z,77.825928
2023-10-22T04:34:20.128Z,77.282715
2023-10-22T04:35:28.841Z,76.873779
2023-10-22T04:36:37.503Z,76.635742
2023-10-22T04:37:47.275Z,76.605225
2023-10-22T04:38:55.987Z,76.776123
2023-10-22T04:40:03.654Z,76.776123
2023-10-22T04:41:12.334Z,76.672363
2023-10-22T04:42:22.032Z,76.873779
2023-10-22T04:43:31.729Z,76.873779
2023-10-22T04:44:41.445Z,76.812744
2023-10-22T04:45:50.058Z,76.977539
2023-10-22T04:46:59.775Z,76.776123
2023-10-22T04:48:07.545Z,76.538086
2023-10-22T04:49:15.145Z,76.538086
2023-10-22T04:50:24.884Z,76.434326
2023-10-22T04:51:32.575Z,76.947021
2023-10-22T04:52:42.261Z,77.453613
2023-10-22T04:53:50.074Z,77.11792
2023-10-22T04:54:58.602Z,78.00293
2023-10-22T04:56:07.281Z,78.167725
2023-10-22T04:57:16.012Z,78.063965
2023-10-22T04:58:25.675Z,77.624512
2023-10-22T04:59:35.352Z,77.215576
2023-10-22T05:00:44.246Z,77.215576
2023-10-22T05:01:52.895Z,77.416992
2023-10-22T05:03:01.623Z,76.977539
2023-10-22T05:04:11.296Z,76.672363
2023-10-22T05:05:21.068Z,77.416992
2023-10-22T05:06:29.675Z,77.178955
2023-10-22T05:07:37.335Z,77.01416
2023-10-22T05:08:47.069Z,77.178955
2023-10-22T05:09:56.731Z,77.081299
2023-10-22T05:11:06.460Z,76.977539
2023-10-22T05:12:15.189Z,76.776123
2023-10-22T05:13:24.806Z,77.319336
2023-10-22T05:14:34.478Z,77.319336
2023-10-22T05:15:44.189Z,77.215576
2023-10-22T05:16:51.862Z,77.081299
2023-10-22T05:18:01.585Z,77.178955
2023-10-22T05:19:11.229Z,76.776123
2023-10-22T05:20:19.941Z,76.9104
2023-10-22T05:21:29.632Z,77.319336
2023-10-22T05:22:39.312Z,77.520752
2023-10-22T05:23:48.993Z,77.416992
2023-10-22T05:24:59.465Z,77.215576
2023-10-22T05:26:07.381Z,77.520752
2023-10-22T05:27:16.092Z,77.520752
2023-10-22T05:28:25.729Z,77.929688
2023-10-22T05:29:35.463Z,77.825928
2023-10-22T05:30:44.120Z,78.167725
2023-10-22T05:31:52.805Z,78.063965
2023-10-22T05:33:02.823Z,77.661133
2023-10-22T05:34:12.205Z,77.557373
2023-10-22T05:35:21.893Z,77.661133
2023-10-22T05:36:31.520Z,78.100586
2023-10-22T05:37:40.217Z,77.966309
2023-10-22T05:38:48.879Z,77.758789
2023-10-22T05:39:58.535Z,77.661133
2023-10-22T05:41:07.283Z,77.252197
2023-10-22T05:42:17.036Z,77.148438
2023-10-22T05:43:25.749Z,77.697754
2023-10-22T05:44:34.441Z,77.593994
2023-10-22T05:45:44.191Z,77.661133
2023-10-22T05:46:52.869Z,77.355957
2023-10-22T05:48:01.606Z,76.947021
2023-10-22T05:49:10.268Z,77.148438
2023-10-22T05:50:20.030Z,77.050781
2023-10-22T05:51:28.861Z,77.148438
2023-10-22T05:52:36.578Z,77.355957
2023-10-22T05:53:46.262Z,77.148438
2023-10-22T05:54:54.984Z,77.087402
2023-10-22T05:56:02.599Z,76.849365
2023-10-22T05:57:12.333Z,76.544189
2023-10-22T05:58:20.937Z,76.239014
2023-10-22T05:59:30.629Z,77.148438
2023-10-22T06:00:40.305Z,76.849365
2023-10-22T06:01:50.063Z,76.641846
2023-10-22T06:02:59.777Z,76.403809
2023-10-22T06:04:08.474Z,76.306152
2023-10-22T06:05:23.656Z,76.239014
2023-10-22T06:06:28.729Z,76.44043
2023-10-22T06:07:37.449Z,76.098633
2023-10-22T06:08:46.128Z,76.000977
2023-10-22T06:09:55.806Z,76.031494
2023-10-22T06:11:04.497Z,76.098633
2023-10-22T06:12:14.160Z,75.695801
2023-10-22T06:13:21.809Z,75.65918
2023-10-22T06:14:30.474Z,75.219727
2023-10-22T06:15:40.167Z,75.012207
2023-10-22T06:16:49.804Z,74.981689
2023-10-22T06:17:58.553Z,75.250244
2023-10-22T06:19:07.184Z,75.085449
2023-10-22T06:20:16.842Z,75.592041
2023-10-22T06:21:26.547Z,75.354004
2023-10-22T06:22:36.211Z,74.810791
2023-10-22T06:23:44.950Z,74.505615
2023-10-22T06:24:54.562Z,74.713135
2023-10-22T06:26:03.240Z,74.743652
2023-10-22T06:27:11.994Z,75.085449
2023-10-22T06:28:19.660Z,75.152588
2023-10-22T06:29:28.317Z,75.012207
2023-10-22T06:30:37.998Z,74.810791
2023-10-22T06:31:45.738Z,74.267578
2023-10-22T06:32:54.391Z,74.304199
2023-10-22T06:34:04.099Z,74.304199
2023-10-22T06:35:12.757Z,74.34082
2023-10-22T06:36:22.469Z,74.713135
2023-10-22T06:37:32.104Z,74.267578
2023-10-22T06:38:40.741Z,73.968506
2023-10-22T06:39:50.432Z,73.760986
2023-10-22T06:40:58.107Z,73.864746
2023-10-22T06:42:05.802Z,73.760986
2023-10-22T06:43:15.461Z,74.139404
2023-10-22T06:44:25.135Z,75.390625
2023-10-22T06:45:33.788Z,75.317383
2023-10-22T06:46:43.489Z,74.810791
2023-10-22T06:47:52.253Z,74.77417
2023-10-22T06:49:01.795Z,74.676514
2023-10-22T06:50:10.459Z,74.609375
2023-10-22T06:51:18.334Z,74.475098
2023-10-22T06:52:29.640Z,74.371338
2023-10-22T06:53:37.440Z,74.371338
2023-10-22T06:54:46.091Z,74.371338
2023-10-22T06:55:54.740Z,74.066162
2023-10-22T06:57:04.500Z,74.371338
2023-10-22T06:58:14.141Z,74.609375
2023-10-22T06:59:22.772Z,74.810791
2023-10-22T07:00:30.490Z,74.267578
2023-10-22T07:01:41.164Z,73.931885
2023-10-22T07:02:50.816Z,73.828125
2023-10-22T07:04:02.337Z,73.626709
2023-10-22T07:05:11.111Z,73.529053
2023-10-22T07:06:19.828Z,74.169922
2023-10-22T07:07:29.439Z,74.438477
2023-10-22T07:08:37.108Z,74.237061
2023-10-22T07:09:44.822Z,74.035645
2023-10-22T07:10:55.471Z,73.626709
2023-10-22T07:12:04.155Z,73.358154
2023-10-22T07:13:12.802Z,74.407959
2023-10-22T07:14:22.520Z,74.572754
2023-10-22T07:15:32.200Z,74.371338
2023-10-22T07:16:41.872Z,74.334717
2023-10-22T07:17:50.642Z,74.035645
2023-10-22T07:18:59.303Z,73.529053
2023-10-22T07:20:08.974Z,73.693848
2023-10-22T07:21:17.693Z,73.388672
2023-10-22T07:22:26.318Z,73.529053
2023-10-22T07:23:34.976Z,73.626709
2023-10-22T07:24:43.658Z,73.425293
2023-10-22T07:25:53.359Z,74.133301
2023-10-22T07:27:03.098Z,74.371338
2023-10-22T07:28:10.738Z,74.475098
2023-10-22T07:29:20.395Z,74.572754
2023-10-22T07:30:30.110Z,74.475098
2023-10-22T07:31:38.814Z,74.542236
2023-10-22T07:32:48.537Z,73.931885
2023-10-22T07:33:57.107Z,74.035645
2023-10-22T07:35:06.801Z,73.590088
2023-10-22T07:36:15.491Z,73.0896
2023-10-22T07:37:24.144Z,73.187256
2023-10-22T07:38:33.812Z,73.492432
2023-10-22T07:39:42.470Z,73.388672
2023-10-22T07:40:51.141Z,73.291016
2023-10-22T07:42:00.874Z,73.291016
2023-10-22T07:43:10.621Z,73.187256
2023-10-22T07:44:20.267Z,72.88208
2023-10-22T07:45:28.904Z,73.291016
2023-10-22T07:46:36.576Z,73.187256
2023-10-22T07:47:46.297Z,73.120117
2023-10-22T07:48:55.948Z,73.529053
2023-10-22T07:50:04.667Z,73.425293
2023-10-22T07:51:14.324Z,73.730469
2023-10-22T07:52:24.032Z,73.529053
2023-10-22T07:53:32.865Z,74.169922
2023-10-22T07:54:42.604Z,74.267578
2023-10-22T07:55:52.288Z,74.334717
2023-10-22T07:57:00.984Z,74.035645
2023-10-22T07:58:08.653Z,73.626709
2023-10-22T07:59:18.302Z,73.388672
2023-10-22T08:00:26.980Z,73.730469
2023-10-22T08:01:36.859Z,73.529053
2023-10-22T08:02:45.604Z,73.760986
2023-10-22T08:03:53.264Z,74.035645
2023-10-22T08:05:02.920Z,74.267578
2023-10-22T08:06:11.635Z,73.828125
2023-10-22T08:07:19.295Z,74.035645
2023-10-22T08:08:28.956Z,73.626709
2023-10-22T08:09:37.591Z,73.730469
2023-10-22T08:10:47.290Z,73.931885
2023-10-22T08:11:56.028Z,73.730469
2023-10-22T08:13:05.671Z,73.321533
2023-10-22T08:14:15.348Z,73.529053
2023-10-22T08:15:25.020Z,73.626709
2023-10-22T08:16:32.681Z,73.529053
2023-10-22T08:17:42.709Z,73.693848
2023-10-22T08:18:52.061Z,73.657227
2023-10-22T08:20:00.740Z,73.0896
2023-10-22T08:21:09.404Z,72.949219
2023-10-22T08:22:19.049Z,73.254395
2023-10-22T08:23:28.708Z,73.150635
2023-10-22T08:24:36.558Z,73.0896
2023-10-22T08:25:44.065Z,73.0896
2023-10-22T08:26:52.738Z,73.254395
2023-10-22T08:28:01.419Z,73.724365
2023-10-22T08:29:11.307Z,72.784424
2023-10-22T08:30:20.967Z,72.949219
2023-10-22T08:31:29.593Z,71.734619
2023-10-22T08:32:39.262Z,71.398926
2023-10-22T08:33:46.969Z,70.794678
2023-10-22T08:34:55.646Z,71.166992
2023-10-22T08:36:05.299Z,69.921875
2023-10-22T08:37:14.993Z,69.854736
2023-10-22T08:38:23.697Z,69.445801
2023-10-22T08:39:32.373Z,69.885254
2023-10-22T08:40:42.036Z,69.818115
2023-10-22T08:41:51.753Z,70.690918
2023-10-22T08:43:00.445Z,70.422363
2023-10-22T08:44:09.116Z,69.885254
2023-10-22T08:45:18.830Z,69.885254
2023-10-22T08:46:27.586Z,69.445801
2023-10-22T08:47:36.303Z,69.146729
2023-10-22T08:48:44.991Z,68.707275
2023-10-22T08:49:54.686Z,68.505859
2023-10-22T08:51:04.441Z,68.707275
2023-10-22T08:52:13.086Z,68.237305
2023-10-22T08:53:20.785Z,68.438721
2023-10-22T08:54:30.488Z,68.54248
2023-10-22T08:55:40.115Z,69.213867
2023-10-22T08:56:49.858Z,67.901611
2023-10-22T08:57:58.454Z,68.103027
2023-10-22T08:59:07.111Z,67.96875
2023-10-22T09:00:16.873Z,67.333984
2023-10-22T09:01:25.553Z,66.595459
2023-10-22T09:02:33.560Z,66.564941
2023-10-22T09:03:43.222Z,66.162109
2023-10-22T09:04:51.838Z,65.759277
2023-10-22T09:06:00.537Z,65.930176
2023-10-22T09:07:09.235Z,64.660645
2023-10-22T09:08:18.895Z,63.928223
2023-10-22T09:09:28.633Z,63.153076
2023-10-22T09:10:36.319Z,63.494873
2023-10-22T09:11:45.745Z,63.592529
2023-10-22T09:12:53.758Z,61.523438
2023-10-22T09:14:03.471Z,61.328125
2023-10-22T09:15:12.215Z,61.096191
2023-10-22T09:16:20.897Z,60.36377
2023-10-22T09:17:30.611Z,60.119629
2023-10-22T09:18:40.352Z,61.297607
2023-10-22T09:19:49.968Z,60.565186
2023-10-22T09:20:57.695Z,59.161377
2023-10-22T09:22:07.301Z,59.564209
2023-10-22T09:23:16.005Z,58.630371
2023-10-22T09:24:24.685Z,58.587646
2023-10-22T09:25:33.413Z,58.990479
2023-10-22T09:26:42.072Z,59.747314
2023-10-22T09:27:51.749Z,60.119629
2023-10-22T09:28:59.447Z,59.362793
2023-10-22T09:30:07.218Z,58.428955
2023-10-22T09:31:15.897Z,56.5979
2023-10-22T09:32:26.778Z,56.555176
2023-10-22T09:33:35.377Z,56.68335
2023-10-22T09:34:43.961Z,59.118652
2023-10-22T09:35:52.620Z,57.409668
2023-10-22T09:37:02.302Z,58.874512
2023-10-22T09:38:11.948Z,58.770752
2023-10-22T09:39:20.640Z,58.14209
2023-10-22T09:40:30.317Z,57.910156
2023-10-22T09:41:40.004Z,58.514404
2023-10-22T09:42:48.666Z,57.611084
2023-10-22T09:43:57.313Z,57.183838
2023-10-22T09:45:06.045Z,57.23877
2023-10-22T09:46:15.705Z,58.47168
2023-10-22T09:47:23.356Z,57.336426
2023-10-22T09:48:31.060Z,57.513428
2023-10-22T09:49:40.750Z,58.514404
2023-10-22T09:50:49.543Z,57.611084
2023-10-22T09:51:59.194Z,56.610107
2023-10-22T09:53:08.855Z,57.867432
2023-10-22T09:54:17.564Z,57.910156
2023-10-22T09:55:27.246Z,56.90918
2023-10-22T09:56:35.977Z,57.006836
2023-10-22T09:57:45.666Z,56.884766
2023-10-22T09:58:54.437Z,57.15332
2023-10-22T10:00:03.309Z,56.726074
2023-10-22T10:01:12.918Z,56.854248
2023-10-22T10:02:22.558Z,56.451416
2023-10-22T10:03:32.415Z,56.451416
2023-10-22T10:04:42.051Z,56.481934
2023-10-22T10:05:51.755Z,56.054688
2023-10-22T10:07:01.493Z,56.555176
2023-10-22T10:08:11.124Z,56.628418
2023-10-22T10:09:20.800Z,55.072021
2023-10-22T10:10:30.448Z,55.01709
2023-10-22T10:11:39.138Z,54.241943
2023-10-22T10:12:48.819Z,55.072021
2023-10-22T10:13:57.520Z,55.670166
2023-10-22T10:15:07.238Z,55.12085
2023-10-22T10:16:16.871Z,53.692627
2023-10-22T10:17:25.607Z,53.393555
2023-10-22T10:18:34.302Z,53.02124
2023-10-22T10:19:43.937Z,53.820801
2023-10-22T10:20:53.635Z,53.692627
2023-10-22T10:22:02.295Z,52.844238
2023-10-22T10:23:11.046Z,52.246094
2023-10-22T10:24:20.807Z,51.745605
2023-10-22T10:25:30.424Z,52.142334
2023-10-22T10:26:39.092Z,51.843262
2023-10-22T10:27:47.932Z,52.246094
2023-10-22T10:28:58.702Z,51.617432
2023-10-22T10:30:07.394Z,50.970459
2023-10-22T10:31:16.099Z,50.872803
2023-10-22T10:32:24.702Z,50.396729
2023-10-22T10:33:33.482Z,50.543213
2023-10-22T10:34:44.964Z,50.494385
2023-10-22T10:35:52.836Z,50.390625
2023-10-22T10:37:01.503Z,50.268555
2023-10-22T10:38:11.197Z,50.518799
2023-10-22T10:39:20.923Z,49.621582
2023-10-22T10:40:29.499Z,50.421143
2023-10-22T10:41:38.183Z,50.817871
2023-10-22T10:42:46.853Z,50.494385
2023-10-22T10:43:56.549Z,50.897217
2023-10-22T10:45:04.375Z,50.274658
2023-10-22T10:46:11.884Z,49.249268
2023-10-22T10:47:21.631Z,48.254395
2023-10-22T10:48:31.417Z,48.876953
2023-10-22T10:49:40.017Z,49.078369
2023-10-22T10:50:48.721Z,49.298096
2023-10-22T10:51:58.372Z,48.675537
2023-10-22T10:53:08.061Z,48.254395
2023-10-22T10:54:16.848Z,48.730469
2023-10-22T10:55:25.524Z,47.888184
2023-10-22T10:56:34.273Z,46.716309
2023-10-22T10:57:42.892Z,47.436523
2023-10-22T10:58:50.570Z,47.387695
2023-10-22T11:00:00.326Z,46.594238
2023-10-22T11:01:09.005Z,46.295166
2023-10-22T11:02:18.654Z,46.19751
2023-10-22T11:03:27.350Z,46.313477
2023-10-22T11:04:36.158Z,47.155762
2023-10-22T11:05:45.852Z,47.357178
2023-10-22T11:06:55.944Z,47.436523
2023-10-22T11:08:05.290Z,46.936035
2023-10-22T11:09:12.980Z,47.314453
2023-10-22T11:10:21.664Z,46.990967
2023-10-22T11:11:31.396Z,46.19751
2023-10-22T11:12:41.066Z,47.155762
2023-10-22T11:13:49.764Z,47.753906
2023-10-22T11:14:59.451Z,48.132324
2023-10-22T11:16:08.168Z,47.53418
2023-10-22T11:17:17.784Z,47.113037
2023-10-22T11:18:26.550Z,46.313477
2023-10-22T11:19:35.255Z,47.711182
2023-10-22T11:20:45.886Z,46.789551
2023-10-22T11:21:54.491Z,47.491455
2023-10-22T11:23:02.162Z,46.21582
2023-10-22T11:24:11.874Z,46.612549
2023-10-22T11:25:21.596Z,47.015381
2023-10-22T11:26:31.365Z,47.113037
2023-10-22T11:27:40.107Z,46.392822
2023-10-22T11:28:48.742Z,46.295166
2023-10-22T11:29:59.428Z,46.447754
2023-10-22T11:31:09.179Z,44.799805
2023-10-22T11:32:17.800Z,46.19751
2023-10-22T11:33:27.704Z,46.258545
2023-10-22T11:34:36.399Z,47.680664
2023-10-22T11:35:46.063Z,47.802734
2023-10-22T11:36:53.707Z,47.802734
2023-10-22T11:38:02.429Z,48.303223
2023-10-22T11:39:12.139Z,48.022461
2023-10-22T11:40:21.748Z,48.626709
2023-10-22T11:41:32.470Z,48.699951
2023-10-22T11:42:40.082Z,48.651123
2023-10-22T11:43:48.811Z,47.833252
2023-10-22T11:44:57.517Z,47.454834
2023-10-22T11:46:05.115Z,47.680664
2023-10-22T11:47:14.766Z,47.399902
2023-10-22T11:48:23.618Z,48.522949
2023-10-22T11:49:33.208Z,48.87085
2023-10-22T11:50:41.883Z,49.694824
2023-10-22T11:51:49.570Z,49.694824
2023-10-22T11:52:59.290Z,50.317383
2023-10-22T11:54:08.997Z,50.616455
2023-10-22T11:55:32.671Z,50.170898
2023-10-22T11:56:27.330Z,49.267578
2023-10-22T11:57:36.065Z,49.395752
2023-10-22T11:58:44.740Z,50.341797
2023-10-22T11:59:54.466Z,50.964355
2023-10-22T12:01:04.183Z,52.11792
2023-10-22T12:02:11.937Z,51.44043
2023-10-22T12:03:21.702Z,50.091553
2023-10-22T12:04:30.529Z,49.346924
2023-10-22T12:05:39.210Z,48.248291
2023-10-22T12:06:47.952Z,48.791504
2023-10-22T12:07:56.658Z,49.414062
2023-10-22T12:09:07.353Z,49.139404
2023-10-22T12:10:17.010Z,50.390625
2023-10-22T12:11:26.714Z,50.714111
2023-10-22T12:12:36.434Z,51.318359
2023-10-22T12:13:46.106Z,51.489258
2023-10-22T12:14:55.785Z,51.416016
2023-10-22T12:16:04.495Z,51.2146
2023-10-22T12:17:13.159Z,51.593018
2023-10-22T12:18:23.931Z,51.293945
2023-10-22T12:19:32.515Z,50.98877
2023-10-22T12:20:41.216Z,51.013184
2023-10-22T12:21:50.941Z,51.165771
2023-10-22T12:22:59.653Z,50.488281
2023-10-22T12:24:16.700Z,50.689697
2023-10-22T12:25:20.002Z,51.513672
2023-10-22T12:26:28.692Z,51.068115
2023-10-22T12:27:38.436Z,50.018311
2023-10-22T12:28:47.083Z,49.145508
2023-10-22T12:29:54.861Z,48.925781
2023-10-22T12:31:04.570Z,47.436523
2023-10-22T12:32:14.222Z,46.270752
2023-10-22T12:33:23.907Z,45.532227
2023-10-22T12:34:32.598Z,43.798828
2023-10-22T12:35:41.360Z,42.944336
2023-10-22T12:36:51.046Z,42.370605
2023-10-22T12:38:00.748Z,42.626953
2023-10-22T12:39:09.454Z,41.949463
2023-10-22T12:40:19.183Z,42.547607
2023-10-22T12:41:27.803Z,41.674805
2023-10-22T12:42:36.534Z,43.023682
2023-10-22T12:43:46.180Z,43.963623
2023-10-22T12:44:54.852Z,44.378662
2023-10-22T12:46:04.566Z,43.981934
2023-10-22T12:47:13.268Z,44.445801
2023-10-22T12:48:20.998Z,44.421387
2023-10-22T12:49:30.557Z,44.500732
2023-10-22T12:50:39.216Z,45.123291
2023-10-22T12:51:47.891Z,44.403076
2023-10-22T12:52:56.552Z,45.263672
2023-10-22T12:54:05.283Z,46.105957
2023-10-22T12:55:14.953Z,46.405029
2023-10-22T12:56:23.608Z,46.905518
2023-10-22T12:57:32.360Z,46.948242
2023-10-22T12:58:42.047Z,47.070312
2023-10-22T12:59:50.796Z,47.094727
2023-10-22T13:01:01.232Z,48.065186
2023-10-22T13:02:10.234Z,48.712158
2023-10-22T13:03:19.937Z,49.01123
2023-10-22T13:04:29.800Z,48.7854
2023-10-22T13:05:39.518Z,47.436523
2023-10-22T13:06:49.263Z,46.990967
2023-10-22T13:07:58.922Z,46.746826
2023-10-22T13:09:07.599Z,45.404053
2023-10-22T13:10:16.288Z,45.129395